»·PEaware :: N664TX L52-L88

N664TX :: L52-L88

FLIGHT INFORMATION

Flight Status: Arrived
Operator: Privately registered:
United States
More flights under this callsign
Pilot: Jeremy H. (10741)
Aircraft: BEECH AIRCRAFT A90-E90 KING AIR
(BE9L)
More flights by this aircraft type
Origin: L52 Oceano Co
United States
Destination: L88 New Cuyama
United States
More flights between these airports :: More routes between these airports
Route:
File this flight plan on PilotEdge
Remarks: CAT-1 Rating
Altitude:
(Current/Filed)
7,500ft
Speed:
(Current/Filed)
190kts
Departed: 28-Jul-18 09:04 AM
Arrived: 28-Jul-18 10:31 AM
Distance/Time
Traveled:
47nm/1:26
Distance/Time
To Go:
Arrived

Flight Plot

Page will automatically refresh every two minutes.


Map Options




Map Legend


Flown Route
Filed Route
Departure Airport
Arrival Airport
Navaid (VOR, NDB)
Fix

Horizontal Profiles

Position Reports

Time Latitude Longitude Heading Altitude Ground
Speed
28-Jul-18 08:49 35.103553 -120.624283 214 14ft 0kts
28-Jul-18 08:50 35.103553 -120.624283 214 14ft 0kts
28-Jul-18 08:51 35.103553 -120.624283 214 14ft 0kts
28-Jul-18 08:52 35.103553 -120.624283 214 14ft 0kts
28-Jul-18 08:53 35.103553 -120.624283 214 14ft 0kts
28-Jul-18 08:54 35.103553 -120.624283 214 14ft 0kts
28-Jul-18 08:55 35.103553 -120.624283 214 14ft 0kts
28-Jul-18 08:56 35.103553 -120.624283 214 14ft 0kts
28-Jul-18 08:57 35.103553 -120.624283 214 14ft 0kts
28-Jul-18 08:58 35.103553 -120.624283 214 14ft 0kts
28-Jul-18 08:59 35.103436 -120.624304 170 14ft 3kts
28-Jul-18 09:00 35.102840 -120.623816 126 15ft 3kts
28-Jul-18 09:01 35.101794 -120.622130 198 16ft 4kts
28-Jul-18 09:02 35.100336 -120.620941 122 16ft 15kts
28-Jul-18 09:03 35.099539 -120.619525 102 16ft 0kts
28-Jul-18 09:04 35.099539 -120.619524 103 16ft 0kts
28-Jul-18 09:05 35.103662 -120.626234 305 156ft 107kts
28-Jul-18 09:06 35.097181 -120.644324 126 1953ft 124kts
28-Jul-18 09:07 35.094165 -120.601742 100 4160ft 136kts
28-Jul-18 09:08 35.089991 -120.556651 101 6274ft 137kts
28-Jul-18 09:09 35.079808 -120.508902 104 7489ft 160kts
28-Jul-18 09:10 35.068994 -120.453228 102 7604ft 179kts
28-Jul-18 09:11 35.058867 -120.391316 98 7500ft 187kts
28-Jul-18 09:12 35.049845 -120.329492 101 7520ft 187kts
28-Jul-18 09:13 35.038222 -120.265714 101 7572ft 196kts
28-Jul-18 09:14 35.025308 -120.199913 103 7547ft 199kts
28-Jul-18 09:15 35.012866 -120.134103 102 7579ft 200kts
28-Jul-18 09:16 34.997330 -120.068746 100 7577ft 200kts
28-Jul-18 09:17 34.988017 -120.001616 91 7571ft 200kts
28-Jul-18 09:18 34.977055 -119.936405 106 6104ft 198kts
28-Jul-18 09:19 34.962587 -119.874435 105 4142ft 186kts
28-Jul-18 09:20 34.951789 -119.817011 101 3221ft 160kts
28-Jul-18 09:21 34.944677 -119.768773 99 3144ft 126kts
28-Jul-18 09:22 34.938113 -119.725655 97 3140ft 127kts
28-Jul-18 09:23 34.929897 -119.686498 110 3150ft 113kts
28-Jul-18 09:24 34.935514 -119.667206 332 2584ft 86kts
28-Jul-18 09:25 35.103553 -120.624284 214 14ft 0kts
28-Jul-18 09:26 35.103553 -120.624284 214 14ft 0kts
28-Jul-18 09:27 35.103553 -120.624284 214 14ft 0kts
28-Jul-18 09:28 35.103553 -120.624284 214 14ft 0kts
28-Jul-18 09:29 35.103553 -120.624284 214 14ft 0kts
28-Jul-18 09:30 35.103553 -120.624284 214 14ft 0kts
28-Jul-18 09:31 35.103553 -120.624284 214 14ft 0kts
28-Jul-18 09:32 35.103553 -120.624284 213 14ft 0kts
28-Jul-18 09:33 35.103553 -120.624284 214 14ft 0kts
28-Jul-18 09:34 35.103553 -120.624284 214 14ft 0kts
28-Jul-18 09:35 35.102785 -120.623739 216 15ft 1kts
28-Jul-18 09:36 35.101059 -120.622299 123 15ft 8kts
28-Jul-18 09:37 35.099609 -120.619592 119 16ft 7kts
28-Jul-18 09:38 35.099950 -120.619339 309 16ft 1kts
28-Jul-18 09:39 35.100269 -120.643247 154 1823ft 107kts
28-Jul-18 09:40 35.094566 -120.609912 86 4282ft 105kts
28-Jul-18 09:41 35.091553 -120.573579 104 6407ft 120kts
28-Jul-18 09:42 35.085990 -120.534606 95 8355ft 107kts
28-Jul-18 09:43 35.081752 -120.489787 106 7508ft 143kts
28-Jul-18 09:44 35.061465 -120.446476 115 7516ft 162kts
28-Jul-18 09:45 35.050552 -120.390335 79 7517ft 182kts
28-Jul-18 09:46 35.061588 -120.327987 77 7509ft 191kts
28-Jul-18 09:47 35.063836 -120.263633 101 7510ft 197kts
28-Jul-18 09:48 35.049789 -120.198917 106 7508ft 199kts
28-Jul-18 09:49 35.035413 -120.133592 102 7505ft 199kts
28-Jul-18 09:50 35.019517 -120.068665 107 7503ft 201kts
28-Jul-18 09:51 35.004122 -120.003901 104 7046ft 191kts
28-Jul-18 09:52 34.990127 -119.946144 109 5900ft 158kts
28-Jul-18 09:53 34.978331 -119.899357 103 4975ft 139kts
28-Jul-18 09:54 34.962857 -119.847774 104 3384ft 177kts
28-Jul-18 09:55 34.952429 -119.788474 99 3194ft 176kts
28-Jul-18 09:56 34.943951 -119.733441 112 3208ft 149kts
28-Jul-18 09:57 34.927639 -119.691199 116 3089ft 130kts
28-Jul-18 09:58 34.912810 -119.657730 112 3189ft 98kts
28-Jul-18 09:59 34.922901 -119.647355 289 2645ft 91kts
28-Jul-18 10:00 34.935910 -119.675756 294 2358ft 97kts
28-Jul-18 10:04 35.103553 -120.624284 214 14ft 0kts
28-Jul-18 10:05 35.103553 -120.624284 214 14ft 0kts
28-Jul-18 10:06 35.102785 -120.623770 176 15ft 0kts
28-Jul-18 10:07 35.102224 -120.624194 209 13ft 8kts
28-Jul-18 10:08 35.100868 -120.621932 125 15ft 9kts
28-Jul-18 10:09 35.099503 -120.619490 82 16ft 0kts
28-Jul-18 10:10 35.099503 -120.619490 82 16ft 0kts
28-Jul-18 10:11 35.099503 -120.619490 82 16ft 0kts
28-Jul-18 10:12 35.099865 -120.619275 320 16ft 11kts
28-Jul-18 10:13 35.110739 -120.638969 303 962ft 120kts
28-Jul-18 10:14 35.098726 -120.640493 77 3004ft 141kts
28-Jul-18 10:15 35.094105 -120.584763 99 3641ft 198kts
28-Jul-18 10:16 35.083717 -120.519758 101 3737ft 194kts
28-Jul-18 10:17 35.072602 -120.453604 101 3830ft 206kts
28-Jul-18 10:18 35.061593 -120.388575 101 5195ft 185kts
28-Jul-18 10:19 35.051525 -120.329316 101 6771ft 177kts
28-Jul-18 10:20 35.041172 -120.268704 101 7511ft 198kts
28-Jul-18 10:21 35.029374 -120.199920 101 7508ft 212kts
28-Jul-18 10:22 35.017126 -120.128678 101 7496ft 215kts
28-Jul-18 10:23 35.004782 -120.057134 102 7493ft 216kts
28-Jul-18 10:24 34.992340 -119.985306 102 7399ft 215kts
28-Jul-18 10:25 34.980249 -119.915735 101 6403ft 201kts
28-Jul-18 10:26 34.969180 -119.852722 101 5392ft 181kts
28-Jul-18 10:27 34.958509 -119.791874 102 4007ft 185kts
28-Jul-18 10:28 34.939570 -119.736462 113 3184ft 153kts
28-Jul-18 10:29 34.925069 -119.696058 115 3182ft 117kts
28-Jul-18 10:30 34.913024 -119.663204 69 3211ft 99kts
28-Jul-18 10:31 34.934082 -119.671393 296 2408ft 94kts
28-Jul-18 10:32 34.940184 -119.686162 296 2173ft 29kts
28-Jul-18 10:33 34.942848 -119.690641 118 2155ft 0kts
28-Jul-18 10:34 34.942646 -119.690581 207 2155ft 0kts
28-Jul-18 10:35 34.942646 -119.690581 207 2155ft 0kts
28-Jul-18 10:36 34.942646 -119.690581 207 2155ft 0kts
28-Jul-18 10:37 34.942646 -119.690581 207 2155ft 0kts
28-Jul-18 10:38 34.942646 -119.690581 207 2155ft 0kts
28-Jul-18 10:39 34.942646 -119.690581 207 2155ft 0kts
28-Jul-18 10:40 34.942646 -119.690581 207 2155ft 0kts
28-Jul-18 10:41 34.942646 -119.690581 207 2155ft 0kts
28-Jul-18 10:42 34.942646 -119.690581 207 2155ft 0kts
28-Jul-18 10:43 34.942646 -119.690581 207 2155ft 0kts
28-Jul-18 10:44 34.942646 -119.690581 207 2155ft 0kts
28-Jul-18 10:45 34.942646 -119.690581 207 2155ft 0kts
28-Jul-18 10:46 34.942646 -119.690581 207 2155ft 0kts

Navigation Log

Ident Type
Flight plan parsing failed, navigation log unavailable